Time;durP1;ratioP1;P1;durP2;ratioP2;P2;SDS_P1;SDS_P2;PMS_P1;PMS_P2;Temp;Humidity;BMP_temperature;BMP_pressure;BME280_temperature;BME280_humidity;BME280_pressure;Samples;Min_cycle;Max_cycle;Signal;HPM_P1;HPM_P2
2024/04/07 00:01:36;;;;;;;13.90;8.00;;;15.00;99.90;;;15.14;79.55;98456.88;5077212;28;20965;-70
2024/04/07 00:04:06;;;;;;;10.10;7.30;;;15.00;99.90;;;15.13;79.59;98460.53;5063751;28;20453;-71
2024/04/07 00:06:32;;;;;;;11.20;7.90;;;15.80;99.90;;;15.15;79.57;98463.00;5083930;28;20437;-71
2024/04/07 00:09:01;;;;;;;9.50;7.43;;;14.90;99.90;;;15.07;79.67;98455.88;5055381;28;20452;-71
2024/04/07 00:11:29;;;;;;;10.70;7.40;;;14.90;99.90;;;15.05;79.69;98450.72;5069067;28;20192;-71
2024/04/07 00:13:56;;;;;;;9.80;7.87;;;14.80;99.90;;;15.03;79.71;98436.00;5071265;28;20482;-70
2024/04/07 00:16:23;;;;;;;11.00;7.47;;;14.80;99.90;;;15.03;80.15;98446.59;5070014;28;20455;-72
2024/04/07 00:18:49;;;;;;;10.83;7.53;;;14.80;99.90;;;15.03;80.10;98443.94;5067476;28;20444;-71
2024/04/07 00:21:15;;;;;;;13.20;7.73;;;14.80;99.90;;;15.01;79.87;98457.34;5085770;28;20471;-72
2024/04/07 00:23:40;;;;;;;13.90;7.77;;;14.80;99.90;;;14.99;79.86;98469.06;5069785;28;20455;-71
2024/04/07 00:26:07;;;;;;;12.80;6.87;;;14.70;99.90;;;14.78;80.09;98480.03;5063793;28;20447;-70
2024/04/07 00:28:33;;;;;;;9.60;6.63;;;14.70;99.90;;;14.75;80.57;98488.25;5067700;28;20276;-70
2024/04/07 00:31:01;;;;;;;11.00;6.90;;;14.60;99.90;;;14.71;80.09;98490.41;5048392;28;20498;-70
2024/04/07 00:33:28;;;;;;;11.73;7.30;;;14.60;99.90;;;14.68;81.35;98488.06;5071946;28;20539;-72
2024/04/07 00:36:01;;;;;;;11.73;8.00;;;14.50;99.90;;;14.66;82.35;98490.06;5065810;28;20453;-71
2024/04/07 00:38:30;;;;;;;9.10;6.97;;;14.50;99.90;;;14.71;82.57;98510.72;5076368;28;21143;-71
2024/04/07 00:40:58;;;;;;;9.17;6.97;;;14.50;99.90;;;14.78;82.32;98511.75;5084676;28;20496;-70
2024/04/07 00:43:26;;;;;;;11.00;7.43;;;14.50;99.90;;;14.76;81.46;98509.28;5068081;28;20528;-71
2024/04/07 00:45:57;;;;;;;8.60;7.00;;;14.50;99.90;;;14.70;81.38;98517.84;5084749;28;20514;-70
2024/04/07 00:48:26;;;;;;;11.73;7.00;;;14.50;99.90;;;14.71;81.20;98516.84;5071341;28;20551;-70
2024/04/07 00:50:54;;;;;;;9.50;7.13;;;14.50;99.90;;;14.72;80.92;98521.16;5069661;28;20467;-71
2024/04/07 00:53:21;;;;;;;8.83;6.70;;;14.50;99.90;;;14.77;80.49;98510.09;5066998;28;20448;-70
2024/04/07 00:55:47;;;;;;;9.00;7.10;;;14.50;99.90;;;14.78;80.67;98520.50;5057074;28;20812;-71
2024/04/07 00:58:16;;;;;;;8.83;6.73;;;14.50;99.90;;;14.80;80.48;98525.66;5075111;28;20974;-70
2024/04/07 01:00:43;;;;;;;8.73;6.30;;;14.60;99.90;;;14.77;80.15;98521.50;5057112;28;20545;-70
2024/04/07 01:03:10;;;;;;;9.63;6.67;;;14.50;99.90;;;14.79;79.68;98527.47;5076748;28;20466;-71
2024/04/07 01:05:48;;;;;;;9.57;6.50;;;14.50;99.90;;;14.61;80.22;98526.69;5069931;28;20552;-71
2024/04/07 01:08:16;;;;;;;11.03;6.60;;;14.50;99.90;;;14.57;81.08;98528.00;5067159;28;20460;-70
2024/04/07 01:10:48;;;;;;;10.63;6.43;;;14.40;99.90;;;14.54;81.65;98534.41;5063246;28;20471;-70
2024/04/07 01:13:14;;;;;;;8.00;6.10;;;14.40;99.90;;;14.46;81.92;98531.66;5083361;28;20447;-71
2024/04/07 01:15:40;;;;;;;8.50;5.53;;;14.40;99.90;;;14.47;81.69;98527.19;5072089;28;20607;-70
2024/04/07 01:18:06;;;;;;;7.30;5.83;;;14.30;99.90;;;14.43;81.64;98523.22;5073414;28;20197;-70
2024/04/07 01:20:36;;;;;;;8.50;5.77;;;14.30;99.90;;;14.34;81.69;98524.97;5074518;28;20193;-70
2024/04/07 01:23:02;;;;;;;9.77;6.53;;;14.30;99.90;;;14.29;81.88;98521.97;5066203;28;20490;-71
2024/04/07 01:25:28;;;;;;;8.47;6.10;;;14.20;99.90;;;14.27;82.20;98514.19;5088635;28;20450;-72
2024/04/07 01:28:01;;;;;;;9.07;6.03;;;14.20;99.90;;;14.15;83.09;98520.69;5065873;28;20233;-71
2024/04/07 01:30:28;;;;;;;9.30;6.10;;;14.10;99.90;;;14.13;83.22;98541.16;5064906;28;20645;-71
2024/04/07 01:32:54;;;;;;;10.90;6.47;;;14.00;99.90;;;14.11;83.02;98545.75;5065992;28;20516;-71
2024/04/07 01:35:20;;;;;;;9.80;6.10;;;14.00;99.90;;;14.12;83.19;98542.97;5073373;28;20788;-71
2024/04/07 01:37:46;;;;;;;11.27;6.20;;;14.00;99.90;;;14.14;83.04;98553.38;5071291;28;20978;-70
2024/04/07 01:40:13;;;;;;;8.30;6.20;;;14.00;99.90;;;14.16;82.98;98554.06;5052548;28;20193;-70
2024/04/07 01:42:40;;;;;;;8.90;6.23;;;14.00;99.90;;;14.18;83.04;98552.06;5070377;28;20177;-70
2024/04/07 01:45:07;;;;;;;8.87;6.30;;;14.00;99.90;;;14.16;82.88;98543.50;5068554;28;20462;-71
2024/04/07 01:47:34;;;;;;;10.43;6.43;;;14.00;99.90;;;14.15;83.23;98544.44;5082270;28;20440;-70
2024/04/07 01:50:00;;;;;;;7.87;5.83;;;14.00;99.90;;;14.15;83.29;98547.09;5051418;28;20460;-71
2024/04/07 01:52:27;;;;;;;7.70;5.87;;;14.00;99.90;;;14.16;83.12;98561.97;5080401;28;20445;-71
2024/04/07 01:54:53;;;;;;;9.90;6.03;;;14.00;99.90;;;14.16;83.04;98563.81;5073971;28;20452;-70
2024/04/07 01:57:18;;;;;;;12.40;5.80;;;14.00;99.90;;;14.13;82.44;98576.31;5075092;28;20803;-70
2024/04/07 01:59:44;;;;;;;11.33;6.77;;;14.00;99.90;;;14.13;81.93;98589.53;5076222;28;20539;-70
2024/04/07 02:02:11;;;;;;;9.67;6.87;;;13.90;99.90;;;13.90;82.93;98580.34;5098662;28;20232;-69
2024/04/07 02:04:37;;;;;;;9.00;6.97;;;13.90;99.90;;;13.80;83.55;98588.34;5062103;28;20249;-72
2024/04/07 02:07:02;;;;;;;8.37;6.17;;;13.80;99.90;;;13.70;83.89;98594.66;5060288;28;20541;-71
2024/04/07 02:09:28;;;;;;;9.70;6.57;;;13.80;99.90;;;13.71;83.33;98583.94;5068701;28;20263;-70
2024/04/07 02:11:55;;;;;;;8.27;5.47;;;13.70;99.90;;;13.77;82.02;98595.72;5075602;28;20181;-69
2024/04/07 02:14:21;;;;;;;9.00;4.70;;;13.70;99.90;;;14.00;73.32;98596.16;5073175;28;20437;-71
2024/04/07 02:16:47;;;;;;;9.63;4.10;;;13.70;99.90;;;14.64;67.76;98595.13;5083359;28;20543;-71
2024/04/07 02:19:13;;;;;;;5.50;2.97;;;14.00;99.90;;;15.07;62.68;98585.50;5070333;28;20192;-71
2024/04/07 02:21:39;;;;;;;7.17;3.00;;;14.30;99.90;;;15.79;57.32;98582.53;5096619;28;20195;-70
2024/04/07 02:24:05;;;;;;;5.00;2.80;;;15.10;99.90;;;16.18;57.46;98596.03;5073381;28;20432;-72
2024/04/07 02:26:32;;;;;;;12.60;2.80;;;15.40;99.90;;;16.50;54.32;98594.41;5071397;28;20447;-70
2024/04/07 02:28:58;;;;;;;8.33;2.93;;;15.80;99.90;;;16.69;54.18;98602.03;5070997;28;20513;-70
2024/04/07 02:31:25;;;;;;;10.23;2.90;;;16.10;99.90;;;16.94;52.17;98599.41;5072173;28;20521;-70
2024/04/07 02:33:50;;;;;;;5.67;2.30;;;16.40;99.90;;;17.19;51.50;98598.34;5094783;28;20459;-69
2024/04/07 02:36:16;;;;;;;14.50;2.70;;;16.60;99.90;;;17.43;51.18;98601.91;5061659;28;20436;-70
2024/04/07 02:38:45;;;;;;;6.13;2.40;;;18.40;99.90;;;17.61;50.42;98605.19;5075531;28;20221;-70
2024/04/07 02:41:11;;;;;;;4.90;2.50;;;17.10;99.90;;;17.70;50.21;98613.94;5074500;28;20241;-70
2024/04/07 02:43:37;;;;;;;10.23;2.93;;;17.20;99.90;;;17.73;50.28;98625.06;5076142;28;20511;-70
2024/04/07 02:48:48;;;;;;;4.43;2.40;;;17.40;99.90;;;17.79;50.00;98632.38;5078227;28;20230;-71
2024/04/07 02:51:13;;;;;;;7.73;2.43;;;17.50;99.90;;;17.83;49.39;98633.66;5072365;28;20472;-70
2024/04/07 02:53:39;;;;;;;7.53;2.30;;;17.50;99.90;;;17.90;49.68;98625.81;5078150;28;20473;-70
2024/04/07 02:56:08;;;;;;;7.10;2.60;;;17.60;99.90;;;17.99;49.12;98623.97;5071903;28;20201;-70
2024/04/07 02:58:34;;;;;;;6.30;2.80;;;17.60;99.90;;;18.03;49.12;98636.75;5076423;28;20190;-71
2024/04/07 03:01:10;;;;;;;9.50;2.47;;;17.70;99.90;;;17.97;49.39;98632.13;5079518;28;20444;-71
2024/04/07 03:03:36;;;;;;;8.50;3.23;;;17.70;99.90;;;17.94;50.08;98631.66;5070101;28;20474;-70
2024/04/07 03:06:10;;;;;;;7.03;2.47;;;17.60;99.90;;;17.75;49.54;98641.66;5084037;28;20562;-70
2024/04/07 03:08:36;;;;;;;9.13;3.00;;;17.60;99.90;;;17.81;49.71;98643.66;5073240;28;20266;-69
2024/04/07 03:11:04;;;;;;;5.10;2.30;;;17.60;99.90;;;17.90;49.33;98648.94;5071795;28;20468;-70
2024/04/07 03:13:30;;;;;;;4.50;2.30;;;17.60;99.90;;;17.83;49.36;98652.28;5071462;28;20451;-70
2024/04/07 03:15:56;;;;;;;5.57;2.20;;;17.60;99.90;;;17.87;49.71;98657.25;5073513;28;20458;-70
2024/04/07 03:18:21;;;;;;;5.83;2.73;;;17.60;99.90;;;17.81;49.51;98658.75;5090067;28;20613;-70
2024/04/07 03:20:48;;;;;;;10.73;2.77;;;17.60;99.90;;;17.77;49.59;98657.44;5068820;28;20197;-70
2024/04/07 03:23:14;;;;;;;6.30;2.20;;;17.60;99.90;;;17.71;49.63;98660.75;5074059;28;20198;-70
2024/04/07 03:25:40;;;;;;;8.00;2.57;;;17.50;99.90;;;17.74;49.71;98668.38;5075517;28;20523;-71
2024/04/07 03:28:06;;;;;;;10.93;2.63;;;17.60;99.90;;;17.78;49.84;98675.03;5076948;28;20454;-69
2024/04/07 03:30:35;;;;;;;7.80;2.63;;;17.50;99.90;;;17.73;49.73;98672.06;5066397;28;20479;-70
2024/04/07 03:33:01;;;;;;;4.80;2.60;;;17.60;99.90;;;17.76;49.63;98677.84;5066420;28;20435;-69
2024/04/07 03:35:28;;;;;;;5.80;2.80;;;17.60;99.90;;;17.79;49.95;98685.50;5067014;28;20454;-70
2024/04/07 03:37:54;;;;;;;5.13;2.13;;;17.50;99.90;;;17.78;49.85;98691.84;5053465;28;20444;-70
2024/04/07 03:40:20;;;;;;;9.77;3.00;;;17.60;99.90;;;17.78;50.13;98688.31;5064055;28;20447;-70
2024/04/07 03:42:46;;;;;;;8.80;2.40;;;17.50;99.90;;;17.74;50.05;98694.97;5070703;28;20296;-69
2024/04/07 03:45:11;;;;;;;9.17;2.53;;;17.50;99.90;;;17.70;50.39;98699.78;5100391;28;20460;-71
2024/04/07 03:47:38;;;;;;;7.53;2.30;;;17.50;99.90;;;17.63;50.46;98712.09;5093083;28;20205;-69
2024/04/07 03:50:05;;;;;;;7.47;2.37;;;17.40;99.90;;;17.60;50.34;98702.63;5075998;28;20205;-71
2024/04/07 03:52:32;;;;;;;5.40;2.20;;;17.40;99.90;;;17.61;50.53;98708.78;5075110;28;20444;-71
2024/04/07 03:54:57;;;;;;;10.43;3.23;;;17.40;99.90;;;17.48;50.91;98711.13;5065312;28;20447;-71
2024/04/07 03:57:23;;;;;;;8.60;2.27;;;17.30;99.90;;;17.56;51.12;98713.78;5075182;28;20439;-70
2024/04/07 03:59:49;;;;;;;7.20;2.20;;;17.30;99.90;;;17.50;51.38;98722.44;5073304;28;20197;-70
2024/04/07 04:02:28;;;;;;;5.40;2.23;;;17.30;99.90;;;17.40;51.03;98722.56;5069492;28;20266;-70
2024/04/07 04:04:58;;;;;;;4.53;2.17;;;17.20;99.90;;;17.40;51.40;98719.91;5063944;28;20319;-69
2024/04/07 04:07:28;;;;;;;6.10;2.30;;;17.20;99.90;;;17.38;51.71;98729.91;5052802;28;20448;-70
2024/04/07 04:09:55;;;;;;;9.50;2.60;;;17.10;99.90;;;17.31;51.75;98731.56;5072189;28;20549;-71
2024/04/07 04:12:22;;;;;;;5.80;2.20;;;17.10;99.90;;;17.33;51.95;98741.00;5084283;28;20442;-69
2024/04/07 04:14:49;;;;;;;6.87;2.27;;;17.10;99.90;;;17.28;52.28;98753.16;5065784;28;20877;-70
2024/04/07 04:17:15;;;;;;;6.70;2.70;;;17.00;99.90;;;17.26;52.38;98761.25;5074460;28;20504;-69
2024/04/07 04:19:41;;;;;;;6.53;2.77;;;17.00;99.90;;;17.20;52.70;98759.28;5071293;28;20450;-70
2024/04/07 04:22:07;;;;;;;5.30;2.67;;;16.90;99.90;;;17.14;52.98;98760.75;5069259;28;20214;-70
2024/04/07 04:24:33;;;;;;;8.20;2.30;;;16.90;99.90;;;17.07;53.09;98753.63;5071242;28;20440;-71
2024/04/07 04:27:00;;;;;;;8.03;3.13;;;16.90;99.90;;;17.04;53.25;98759.28;5075607;28;20276;-71
2024/04/07 04:29:26;;;;;;;11.63;2.50;;;16.80;99.90;;;16.99;53.50;98759.78;5067132;28;20520;-70
2024/04/07 04:31:52;;;;;;;4.63;2.40;;;16.80;99.90;;;16.88;54.38;98776.00;5072096;28;20445;-70
2024/04/07 04:34:17;;;;;;;6.63;2.63;;;16.70;99.90;;;16.88;54.32;98781.31;5085770;28;20200;-69
2024/04/07 04:36:43;;;;;;;4.40;2.40;;;16.70;99.90;;;16.79;54.39;98785.75;5074799;28;20192;-68
2024/04/07 04:39:11;;;;;;;12.83;3.00;;;16.60;99.90;;;16.78;54.46;98800.03;5055591;28;20197;-70
2024/04/07 04:41:37;;;;;;;5.90;2.30;;;16.60;99.90;;;16.75;54.74;98795.03;5104557;28;20653;-69
2024/04/07 04:44:03;;;;;;;6.30;2.57;;;16.50;99.90;;;16.71;54.96;98793.69;5051135;28;20458;-70
2024/04/07 04:46:28;;;;;;;6.30;2.70;;;16.50;99.90;;;16.61;55.14;98791.19;5074661;28;20516;-69
2024/04/07 04:48:54;;;;;;;4.30;2.50;;;16.40;99.90;;;16.54;55.35;98787.47;5056911;28;20182;-70
2024/04/07 04:51:20;;;;;;;5.87;2.60;;;16.40;99.90;;;16.53;55.39;98787.66;5055164;28;20217;-69
2024/04/07 04:53:45;;;;;;;7.20;2.60;;;16.40;99.90;;;16.44;55.60;98797.41;5070366;28;20209;-70
2024/04/07 04:56:11;;;;;;;8.50;2.50;;;16.30;99.90;;;16.43;55.54;98801.88;5065826;28;20240;-70
2024/04/07 04:58:37;;;;;;;7.97;3.27;;;16.30;99.90;;;16.44;55.72;98805.34;5076889;28;20190;-70
2024/04/07 05:01:13;;;;;;;10.00;6.30;;;16.30;99.90;;;16.44;55.67;98808.00;5072491;28;20208;-70
2024/04/07 05:03:39;;;;;;;11.37;7.43;;;16.30;99.90;;;16.43;55.80;98806.34;5059559;28;20219;-70
2024/04/07 05:06:07;;;;;;;14.57;6.90;;;16.20;99.90;;;16.46;55.69;98811.34;5066072;28;20510;-70
2024/04/07 05:08:34;;;;;;;17.27;5.80;;;16.30;99.90;;;16.49;55.74;98824.28;5072036;28;20506;-70
2024/04/07 05:11:04;;;;;;;9.13;4.87;;;16.30;99.90;;;16.45;56.21;98836.16;5056566;28;20476;-69
2024/04/07 05:13:33;;;;;;;7.00;3.20;;;16.30;99.90;;;16.48;56.20;98835.03;5065237;28;20493;-69
2024/04/07 05:16:00;;;;;;;6.10;2.90;;;16.20;99.90;;;16.52;56.46;98839.00;5063252;28;20450;-69
2024/04/07 05:18:26;;;;;;;8.50;2.70;;;16.20;99.90;;;16.46;56.75;98840.50;5071263;28;20455;-70
2024/04/07 05:20:53;;;;;;;7.43;2.70;;;16.20;99.90;;;16.49;56.96;98842.84;5064515;28;20450;-70
2024/04/07 05:23:19;;;;;;;5.53;2.60;;;16.20;99.90;;;16.47;56.84;98844.81;5058305;28;20459;-69
2024/04/07 05:25:45;;;;;;;10.80;2.60;;;16.20;99.90;;;16.43;57.24;98843.47;5074889;28;20455;-70
2024/04/07 05:28:11;;;;;;;6.80;2.67;;;16.20;99.90;;;16.45;57.32;98858.22;5073518;28;20209;-71
2024/04/07 05:30:37;;;;;;;6.10;3.10;;;16.10;99.90;;;16.53;57.17;98867.22;5059712;28;20752;-69
2024/04/07 05:33:04;;;;;;;4.87;2.30;;;16.10;99.90;;;16.61;57.40;98881.34;5067394;28;20443;-70
2024/04/07 05:35:32;;;;;;;6.00;2.63;;;16.20;99.90;;;16.62;57.86;98882.19;5068775;28;20478;-69
2024/04/07 05:38:02;;;;;;;6.47;2.70;;;16.20;99.90;;;16.59;57.65;98880.66;5073485;28;20599;-70
2024/04/07 05:40:28;;;;;;;10.13;2.30;;;16.20;99.90;;;16.56;57.69;98870.38;5068024;28;20463;-69
2024/04/07 05:42:54;;;;;;;5.10;2.37;;;16.20;99.90;;;16.66;57.81;98865.78;5077170;28;20497;-71
2024/04/07 05:45:21;;;;;;;5.00;2.60;;;16.30;99.90;;;16.78;57.55;98878.78;5073584;28;20452;-70
2024/04/07 05:47:52;;;;;;;4.60;2.70;;;16.30;99.90;;;16.92;57.69;98886.13;5071498;28;20685;-70
2024/04/07 05:50:18;;;;;;;9.57;2.70;;;16.30;99.90;;;17.22;57.53;98891.88;5054800;28;20551;-69
2024/04/07 05:52:45;;;;;;;5.10;2.57;;;16.40;99.90;;;17.48;56.80;98892.56;5060795;28;20440;-70
2024/04/07 05:55:11;;;;;;;8.13;2.77;;;16.60;99.90;;;17.70;56.15;98900.88;5075357;28;20451;-71
2024/04/07 05:57:38;;;;;;;4.00;2.20;;;16.70;99.90;;;17.82;56.02;98894.28;5063000;28;20522;-69
2024/04/07 06:00:08;;;;;;;12.30;3.10;;;16.80;99.90;;;17.91;55.72;98911.06;5075104;28;20464;-70
2024/04/07 06:02:35;;;;;;;7.50;3.13;;;17.00;99.90;;;17.90;55.72;98902.22;5071401;28;20451;-70
2024/04/07 06:05:01;;;;;;;5.97;2.80;;;17.10;99.90;;;18.01;54.99;98899.25;5069850;28;20483;-70
2024/04/07 06:07:27;;;;;;;5.80;2.83;;;17.20;99.90;;;18.11;54.63;98912.34;5059908;28;20447;-71
2024/04/07 06:09:53;;;;;;;6.10;2.50;;;17.30;99.90;;;18.18;54.23;98920.47;5077838;28;20560;-69
2024/04/07 06:12:19;;;;;;;6.03;2.70;;;17.50;99.90;;;18.25;53.36;98916.16;5072083;28;20703;-71
2024/04/07 06:14:46;;;;;;;8.60;2.50;;;17.60;99.90;;;18.26;53.22;98918.66;5073943;28;20243;-69
2024/04/07 06:17:12;;;;;;;6.07;2.47;;;17.60;99.90;;;18.43;53.08;98924.75;5062362;28;20206;-70
2024/04/07 06:19:37;;;;;;;6.90;2.80;;;17.70;99.90;;;18.65;52.61;98919.72;5074964;28;20538;-70
2024/04/07 06:22:03;;;;;;;6.97;2.50;;;17.90;99.90;;;18.86;52.47;98928.00;5070907;28;20186;-70
2024/04/07 06:24:29;;;;;;;7.13;2.73;;;18.00;99.90;;;19.13;51.91;98936.53;5069067;28;20576;-73
2024/04/07 06:26:55;;;;;;;9.90;2.90;;;18.20;99.90;;;18.95;51.67;98950.94;5086240;28;20224;-70
2024/04/07 06:29:20;;;;;;;8.00;2.70;;;18.40;99.90;;;18.90;51.90;98966.56;5069654;28;20667;-69
2024/04/07 06:31:47;;;;;;;6.67;2.40;;;18.40;99.90;;;18.83;52.31;98970.94;5070129;28;20186;-70
2024/04/07 06:34:12;;;;;;;7.57;3.00;;;18.40;99.90;;;18.95;52.54;98977.53;5099742;28;20181;-70
2024/04/07 06:36:38;;;;;;;5.20;2.43;;;18.40;99.90;;;18.63;52.87;98967.81;5078654;28;20470;-69
2024/04/07 06:39:04;;;;;;;6.80;2.57;;;18.40;99.90;;;18.32;54.00;98967.69;5073534;28;20189;-70
2024/04/07 06:41:29;;;;;;;9.17;3.10;;;18.30;99.90;;;18.15;54.53;98969.50;5067430;28;20275;-70
2024/04/07 06:43:56;;;;;;;7.67;2.80;;;18.10;99.90;;;18.05;55.09;98968.84;5100918;28;20442;-70
2024/04/07 06:46:22;;;;;;;7.33;3.63;;;17.90;99.90;;;17.88;55.99;98977.81;5078299;28;20269;-69
2024/04/07 06:48:48;;;;;;;11.37;5.90;;;17.80;99.90;;;17.67;56.61;98964.97;5054888;28;20449;-70
2024/04/07 06:51:13;;;;;;;5.70;3.13;;;17.70;99.90;;;17.77;56.55;98958.53;5077634;28;20471;-70
2024/04/07 06:53:39;;;;;;;10.13;3.60;;;17.50;99.90;;;18.10;56.23;98952.41;5102601;28;20410;-69
2024/04/07 06:56:08;;;;;;;10.30;4.43;;;17.60;99.90;;;18.22;56.01;98948.38;5070894;28;20240;-70
2024/04/07 06:58:34;;;;;;;7.50;3.43;;;17.70;99.90;;;18.25;56.21;98948.06;5069430;28;20189;-70
2024/04/07 07:01:00;;;;;;;11.63;5.07;;;17.80;99.90;;;18.29;56.05;98954.72;5067320;28;20454;-69
2024/04/07 07:03:26;;;;;;;6.83;3.13;;;17.90;99.90;;;18.21;56.46;98960.03;5074268;28;20197;-70
2024/04/07 07:05:54;;;;;;;8.70;4.40;;;17.90;99.90;;;18.26;56.26;98968.34;5057110;28;20565;-70
2024/04/07 07:08:20;;;;;;;7.20;3.47;;;17.90;99.90;;;18.42;56.53;98965.66;5067138;28;20448;-70
2024/04/07 07:11:00;;;;;;;6.70;3.20;;;18.00;99.90;;;18.78;55.83;98954.63;5086507;28;20475;-71
2024/04/07 07:13:30;;;;;;;5.23;2.60;;;18.10;99.90;;;18.73;55.11;98962.31;5071287;28;20178;-69
2024/04/07 07:15:57;;;;;;;6.83;3.10;;;18.20;99.90;;;18.98;55.22;98971.88;5069172;28;20476;-70
2024/04/07 07:18:23;;;;;;;7.60;3.87;;;18.40;99.90;;;18.79;55.27;98980.25;5068889;28;20440;-70
2024/04/07 07:20:49;;;;;;;7.30;3.37;;;18.40;99.90;;;18.86;54.93;98973.25;5072084;28;20439;-70
2024/04/07 07:23:16;;;;;;;6.30;2.87;;;18.40;99.90;;;18.87;55.22;98984.72;5076404;28;20443;-70
2024/04/07 07:25:44;;;;;;;6.80;3.50;;;18.50;99.90;;;18.88;55.10;98986.38;5087554;28;20467;-69
2024/04/07 07:28:11;;;;;;;7.83;3.23;;;18.50;99.90;;;18.92;55.59;98993.03;5072414;28;20490;-70
2024/04/07 07:30:36;;;;;;;10.50;4.70;;;18.50;99.90;;;19.17;55.07;98991.13;5072282;28;20471;-70
2024/04/07 07:33:05;;;;;;;9.70;3.13;;;18.60;99.90;;;19.20;54.87;98998.75;5073025;28;20473;-69
2024/04/07 07:35:32;;;;;;;7.50;3.00;;;18.70;99.90;;;19.09;55.20;99009.78;5068161;28;20186;-70
2024/04/07 07:37:58;;;;;;;7.53;2.87;;;18.70;99.90;;;19.26;55.15;99014.03;5074629;28;20458;-70
2024/04/07 07:40:24;;;;;;;6.60;2.73;;;18.70;99.90;;;19.54;53.88;99011.72;5069551;28;20447;-70
2024/04/07 07:42:49;;;;;;;5.87;2.60;;;18.80;99.90;;;19.77;52.44;99013.66;5059530;28;20193;-71
2024/04/07 07:45:20;;;;;;;6.37;2.80;;;19.00;99.90;;;19.77;52.05;99019.81;5064467;28;20189;-70
2024/04/07 07:47:47;;;;;;;10.70;3.60;;;19.20;99.90;;;19.70;52.04;99024.16;5070052;28;20217;-70
2024/04/07 07:50:13;;;;;;;6.73;3.30;;;19.30;99.90;;;19.29;53.47;99027.00;5067160;28;20470;-70
2024/04/07 07:52:38;;;;;;;7.13;3.20;;;19.20;99.90;;;19.28;54.51;99038.66;5077227;28;20463;-71
2024/04/07 07:55:05;;;;;;;7.67;3.13;;;19.10;99.90;;;19.55;53.35;99036.56;5068220;28;20460;-70
2024/04/07 07:57:30;;;;;;;10.43;3.37;;;19.10;99.90;;;19.32;54.28;99047.97;5065625;28;20182;-71
2024/04/07 07:59:56;;;;;;;8.90;3.10;;;19.10;99.90;;;19.44;54.28;99035.94;5101109;27;20444;-70
2024/04/07 08:02:22;;;;;;;8.63;2.87;;;19.10;99.90;;;19.80;53.91;99037.28;5071530;28;20204;-70
2024/04/07 08:04:48;;;;;;;9.20;2.67;;;19.20;99.90;;;20.22;52.71;99039.50;5069832;28;20232;-70
2024/04/07 08:07:14;;;;;;;8.20;3.37;;;19.40;99.90;;;20.41;51.89;99040.84;5074112;28;20443;-69
2024/04/07 08:09:40;;;;;;;9.03;3.30;;;19.70;99.90;;;20.43;52.13;99033.50;5057126;28;20661;-69
2024/04/07 08:12:06;;;;;;;11.53;4.27;;;19.80;99.90;;;20.64;51.05;99032.81;5066140;28;20461;-69
2024/04/07 08:14:32;;;;;;;6.80;3.40;;;20.00;99.90;;;20.57;51.12;99037.22;5087962;28;20446;-69
2024/04/07 08:16:58;;;;;;;6.23;3.27;;;20.10;99.90;;;20.86;50.83;99031.09;5070195;28;20448;-69
2024/04/07 08:19:23;;;;;;;8.00;2.93;;;20.20;99.90;;;21.20;50.69;99049.25;5075076;28;20181;-70
2024/04/07 08:21:50;;;;;;;8.60;3.10;;;20.30;99.90;;;21.05;50.75;99059.13;5071514;28;20188;-69
2024/04/07 08:24:17;;;;;;;10.00;3.80;;;20.40;99.90;;;21.29;50.13;99061.53;5093879;28;20310;-70
2024/04/07 08:26:43;;;;;;;6.70;2.90;;;20.50;99.90;;;21.14;49.51;99060.69;5073865;28;20446;-70
2024/04/07 08:29:08;;;;;;;7.60;2.80;;;20.60;99.90;;;21.28;50.12;99057.19;5065385;28;20455;-68
2024/04/07 08:31:34;;;;;;;6.67;2.70;;;20.60;99.90;;;21.47;49.18;99066.53;5062649;28;20209;-69
2024/04/07 08:34:00;;;;;;;6.20;2.67;;;20.70;99.90;;;21.68;48.80;99057.72;5056804;28;20184;-70
2024/04/07 08:36:25;;;;;;;9.33;3.13;;;20.90;99.90;;;21.93;48.66;99050.19;5066745;28;20220;-70
2024/04/07 08:38:51;;;;;;;7.50;2.67;;;21.10;99.90;;;22.28;48.32;99042.31;5058489;28;20201;-70
2024/04/07 08:41:17;;;;;;;7.87;2.60;;;21.30;99.90;;;21.94;47.19;99043.81;5072001;28;20208;-69
2024/04/07 08:43:47;;;;;;;7.63;2.70;;;21.40;99.90;;;21.79;47.70;99040.38;5072710;28;20192;-69
2024/04/07 08:46:14;;;;;;;5.80;2.80;;;21.50;99.90;;;21.84;48.21;99042.47;5065160;28;20440;-69
2024/04/07 08:48:50;;;;;;;6.27;2.60;;;21.40;99.90;;;21.71;49.28;99041.28;5087696;28;20462;-70
2024/04/07 08:51:17;;;;;;;9.73;2.90;;;21.30;99.90;;;21.91;48.52;99043.34;5085302;28;20516;-70
2024/04/07 08:53:44;;;;;;;6.20;2.70;;;21.40;99.90;;;21.66;48.55;99041.03;5071284;28;20925;-70
2024/04/07 08:56:13;;;;;;;6.50;2.70;;;21.30;99.90;;;21.61;48.60;99043.44;5068038;28;20450;-69
2024/04/07 08:58:40;;;;;;;6.73;3.07;;;21.30;99.90;;;21.67;48.43;99025.81;5036891;28;20441;-69
2024/04/07 09:01:12;;;;;;;8.23;3.00;;;21.30;99.90;;;21.47;49.16;99029.09;5066287;28;20447;-70
2024/04/07 09:03:38;;;;;;;5.57;2.53;;;21.20;99.90;;;21.61;48.00;99023.91;5069931;28;20447;-68
2024/04/07 09:06:04;;;;;;;6.33;2.73;;;21.20;99.90;;;21.72;48.07;99020.72;5098141;28;20552;-69
2024/04/07 09:08:32;;;;;;;7.73;2.40;;;21.20;99.90;;;21.69;47.44;99021.09;5071074;28;21160;-69
2024/04/07 09:10:57;;;;;;;9.37;2.57;;;21.20;99.90;;;21.61;47.03;99014.03;5064509;28;20214;-71
2024/04/07 09:13:23;;;;;;;6.30;2.80;;;21.20;99.90;;;21.27;46.16;99015.44;5067257;28;20460;-70
2024/04/07 09:15:49;;;;;;;4.40;2.20;;;21.20;99.90;;;21.38;47.17;99022.19;5062778;28;20174;-71
2024/04/07 09:18:18;;;;;;;6.37;2.87;;;21.00;99.90;;;21.73;47.54;99023.22;5066335;28;20281;-70
2024/04/07 09:20:44;;;;;;;7.23;2.40;;;21.10;99.90;;;22.12;46.97;99016.63;5054388;28;20447;-70
2024/04/07 09:23:10;;;;;;;6.83;2.50;;;21.30;99.90;;;21.62;46.52;99014.84;5072369;28;20475;-70
2024/04/07 09:25:36;;;;;;;5.80;2.20;;;21.40;99.90;;;21.45;47.84;99024.94;5055366;28;20920;-70
2024/04/07 09:28:06;;;;;;;4.83;2.53;;;21.20;99.90;;;21.89;47.09;99010.63;5065637;28;20691;-69
2024/04/07 09:30:31;;;;;;;6.70;2.13;;;21.30;99.90;;;22.13;45.34;99006.72;5071015;28;20208;-69
2024/04/07 09:32:57;;;;;;;5.60;2.73;;;21.50;99.90;;;22.53;45.13;99002.56;5067117;28;20475;-69
2024/04/07 09:35:24;;;;;;;6.17;2.13;;;21.60;99.90;;;22.92;45.28;99001.22;5078013;28;20374;-71
2024/04/07 09:37:50;;;;;;;6.37;2.20;;;21.90;99.90;;;23.15;44.61;98997.44;5066437;28;20443;-70
2024/04/07 09:40:16;;;;;;;5.37;2.20;;;22.10;99.90;;;22.96;43.76;99005.19;5065318;28;20443;-70
2024/04/07 09:42:44;;;;;;;7.00;2.27;;;22.30;99.90;;;23.00;43.84;99001.06;5067069;28;20452;-71
2024/04/07 09:45:10;;;;;;;10.30;2.50;;;22.30;99.90;;;23.19;44.07;98999.50;5064822;28;20519;-70
2024/04/07 09:47:39;;;;;;;3.93;1.90;;;22.40;99.90;;;23.28;43.79;98998.31;5066136;28;20495;-70
2024/04/07 09:50:24;;;;;;;10.37;2.53;;;22.50;99.90;;;23.61;43.77;98992.25;5061253;28;20467;-69
2024/04/07 09:52:51;;;;;;;3.63;2.00;;;22.60;99.90;;;23.38;43.48;98989.09;5070849;28;20448;-70
2024/04/07 09:55:19;;;;;;;6.70;2.10;;;22.80;99.90;;;22.86;44.40;98997.47;5090429;28;20522;-69
2024/04/07 09:57:45;;;;;;;3.97;2.00;;;22.60;99.90;;;23.03;43.74;98987.28;5099414;28;20443;-69
2024/04/07 10:00:12;;;;;;;5.97;1.93;;;22.60;99.90;;;23.00;43.69;98990.34;5067164;28;20446;-69
2024/04/07 10:02:39;;;;;;;7.53;2.57;;;22.50;99.90;;;23.30;44.25;98988.22;5064237;28;20197;-70
2024/04/07 10:05:08;;;;;;;6.23;2.33;;;22.50;99.90;;;23.46;43.37;98989.75;5075340;28;20501;-69
2024/04/07 10:07:39;;;;;;;5.20;2.10;;;22.70;99.90;;;23.14;43.06;98993.94;5069941;28;20448;-71
2024/04/07 10:10:08;;;;;;;5.27;1.90;;;22.70;99.90;;;23.25;44.00;98993.34;5060254;28;20921;-70
2024/04/07 10:12:34;;;;;;;7.40;2.07;;;22.70;99.90;;;22.94;43.19;98993.00;5070170;28;20440;-70
2024/04/07 10:14:59;;;;;;;7.00;2.57;;;22.60;99.90;;;22.87;43.75;98992.94;5091820;28;20512;-69
2024/04/07 10:17:30;;;;;;;7.07;2.47;;;22.40;99.90;;;22.97;43.47;98982.69;5066672;28;20221;-69
2024/04/07 10:19:58;;;;;;;6.30;1.90;;;22.40;99.90;;;23.05;42.91;98985.22;5078789;28;20178;-70